Time;durP1;ratioP1;P1;durP2;ratioP2;P2;SDS_P1;SDS_P2;PMS_P1;PMS_P2;Temp;Humidity;BMP_temperature;BMP_pressure;BME280_temperature;BME280_humidity;BME280_pressure;Samples;Min_cycle;Max_cycle;Signal;HPM_P1;HPM_P2
2023/10/11 00:00:34;;;;;;;2.65;2.08;;;8.40;99.90;;;;;;5059356;28;20048;-78
2023/10/11 00:03:05;;;;;;;3.72;1.60;;;8.40;99.90;;;;;;5069812;28;20470;-78
2023/10/11 00:05:40;;;;;;;4.95;2.15;;;8.40;99.90;;;;;;5058963;28;20393;-77
2023/10/11 00:08:08;;;;;;;4.07;2.40;;;8.40;99.90;;;;;;5063969;28;20032;-77
2023/10/11 00:10:43;;;;;;;5.93;2.92;;;8.40;99.90;;;;;;5063610;28;20047;-78
2023/10/11 00:13:15;;;;;;;3.92;2.25;;;8.60;99.90;;;;;;5055329;28;20032;-78
2023/10/11 00:15:53;;;;;;;8.88;2.72;;;8.50;99.90;;;;;;5073493;28;20103;-77
2023/10/11 00:18:26;;;;;;;5.53;2.90;;;8.50;99.90;;;;;;5053089;28;20027;-77
2023/10/11 00:20:56;;;;;;;7.32;2.22;;;8.50;99.90;;;;;;5055591;28;20116;-78
2023/10/11 00:23:27;;;;;;;9.07;2.72;;;8.50;99.90;;;;;;5069679;28;20059;-78
2023/10/11 00:25:54;;;;;;;5.68;2.53;;;8.50;99.90;;;;;;5094122;28;20044;-78
2023/10/11 00:28:26;;;;;;;6.25;2.60;;;8.50;99.90;;;;;;5092555;28;20035;-78
2023/10/11 00:30:53;;;;;;;3.92;1.80;;;8.50;99.90;;;;;;5093580;28;20020;-78
2023/10/11 00:33:19;;;;;;;2.40;2.20;;;8.50;99.90;;;;;;5097385;28;20101;-78
2023/10/11 00:35:47;;;;;;;11.20;2.20;;;8.40;99.90;;;;;;5097341;28;20016;-77
2023/10/11 00:38:18;;;;;;;4.72;2.13;;;8.30;99.90;;;;;;5096169;28;20024;-77
2023/10/11 00:41:06;;;;;;;5.82;2.17;;;8.30;99.90;;;;;;5097526;28;20064;-78
2023/10/11 00:43:49;;;;;;;9.48;2.53;;;8.30;99.90;;;;;;5099402;28;20022;-78
2023/10/11 00:46:19;;;;;;;7.03;2.60;;;8.40;99.90;;;;;;5098434;28;20020;-78
2023/10/11 00:51:30;;;;;;;2.67;2.30;;;8.60;99.90;;;;;;5100202;28;20031;-78
2023/10/11 00:54:00;;;;;;;7.32;2.63;;;8.50;99.90;;;;;;5098326;28;20035;-78
2023/10/11 00:56:31;;;;;;;6.35;1.88;;;8.40;99.90;;;;;;5099795;28;20421;-77
2023/10/11 00:59:03;;;;;;;4.82;3.00;;;8.20;99.90;;;;;;5099670;28;20021;-78
2023/10/11 01:01:29;;;;;;;4.90;3.00;;;8.00;99.90;;;;;;5098382;28;20028;-78
2023/10/11 01:03:55;;;;;;;12.32;2.85;;;8.00;99.90;;;;;;5098654;28;20169;-78
2023/10/11 01:06:25;;;;;;;9.73;2.53;;;8.00;99.90;;;;;;5098751;28;20028;-78
2023/10/11 01:08:52;;;;;;;5.45;2.55;;;8.10;99.90;;;;;;5097539;28;20016;-78
2023/10/11 01:11:18;;;;;;;9.48;2.60;;;8.10;99.90;;;;;;5096075;28;20025;-77
2023/10/11 01:13:50;;;;;;;7.65;3.25;;;8.10;99.90;;;;;;5096630;28;20102;-77
2023/10/11 01:16:18;;;;;;;5.95;2.78;;;8.20;99.90;;;;;;5095197;28;20115;-77
2023/10/11 01:18:43;;;;;;;5.65;3.08;;;8.30;99.90;;;;;;5095727;28;20083;-77
2023/10/11 01:21:12;;;;;;;4.22;3.05;;;8.30;99.90;;;;;;5097866;28;20047;-78
2023/10/11 01:23:38;;;;;;;6.37;2.23;;;8.20;99.90;;;;;;5096078;28;20036;-78
2023/10/11 01:26:07;;;;;;;3.67;1.77;;;8.10;99.90;;;;;;5096381;28;20423;-78
2023/10/11 01:28:38;;;;;;;7.20;2.50;;;8.10;99.90;;;;;;5097721;28;20051;-78
2023/10/11 01:31:11;;;;;;;4.90;3.28;;;8.10;99.90;;;;;;5096477;28;20024;-78
2023/10/11 01:33:41;;;;;;;3.63;2.55;;;8.00;99.90;;;;;;5097625;28;20115;-78
2023/10/11 01:36:21;;;;;;;;;;;8.00;99.90;;;;;;5097021;28;20020;-78
2023/10/11 01:38:47;;;;;;;4.30;2.72;;;8.00;99.90;;;;;;5096384;28;20007;-78
2023/10/11 01:41:19;;;;;;;4.25;2.78;;;8.00;99.90;;;;;;5096705;28;20055;-78
2023/10/11 01:43:49;;;;;;;4.20;2.25;;;8.10;99.90;;;;;;5096356;28;20020;-79
2023/10/11 01:46:27;;;;;;;3.67;1.83;;;8.20;99.90;;;;;;5096719;28;20388;-78
2023/10/11 01:49:01;;;;;;;10.77;2.45;;;8.30;99.90;;;;;;5096611;28;20031;-78
2023/10/11 01:51:27;;;;;;;8.60;2.85;;;8.20;99.90;;;;;;5096752;28;20377;-78
2023/10/11 01:54:00;;;;;;;6.55;2.58;;;8.20;99.90;;;;;;5096097;28;20115;-78
2023/10/11 01:56:26;;;;;;;4.07;2.33;;;8.20;99.90;;;;;;5096202;28;20515;-77
2023/10/11 01:58:52;;;;;;;4.35;2.10;;;8.20;99.90;;;;;;5097798;28;20039;-78
2023/10/11 02:01:21;;;;;;;3.45;1.95;;;8.10;99.90;;;;;;5098196;28;20017;-78
2023/10/11 02:03:51;;;;;;;11.77;3.03;;;7.90;99.90;;;;;;5096328;28;20533;-78
2023/10/11 02:06:18;;;;;;;5.63;2.40;;;8.00;99.90;;;;;;5096495;28;20055;-78
2023/10/11 02:08:44;;;;;;;7.20;3.67;;;7.90;99.90;;;;;;5096809;28;20049;-78
2023/10/11 02:11:09;;;;;;;15.52;2.60;;;8.00;99.90;;;;;;5096746;28;20472;-78
2023/10/11 02:13:39;;;;;;;4.43;2.97;;;8.00;99.90;;;;;;5095752;28;20032;-78
2023/10/11 02:16:09;;;;;;;7.15;2.55;;;8.10;99.90;;;;;;5095357;28;20038;-77
2023/10/11 02:18:35;;;;;;;9.73;2.25;;;8.10;99.90;;;;;;5096267;28;20544;-78
2023/10/11 02:21:06;;;;;;;7.90;2.05;;;8.00;99.90;;;;;;5096086;28;20024;-78
2023/10/11 02:23:39;;;;;;;3.30;2.33;;;8.00;99.90;;;;;;5096140;28;20523;-77
2023/10/11 02:26:09;;;;;;;6.35;2.25;;;8.10;99.90;;;;;;5097878;28;20024;-79
2023/10/11 02:28:38;;;;;;;5.05;2.13;;;8.00;99.90;;;;;;5097018;28;20032;-77
2023/10/11 02:31:08;;;;;;;5.05;2.60;;;7.90;99.90;;;;;;5098633;28;20039;-78
2023/10/11 02:33:34;;;;;;;3.65;2.13;;;7.70;99.90;;;;;;5096169;28;20040;-78
2023/10/11 02:36:08;;;;;;;2.08;1.88;;;7.60;99.90;;;;;;5097140;28;20080;-78
2023/10/11 02:38:41;;;;;;;6.05;1.92;;;7.60;99.90;;;;;;5098386;28;20020;-78
2023/10/11 02:41:08;;;;;;;3.88;1.80;;;7.50;99.90;;;;;;5097146;28;20023;-78
2023/10/11 02:43:47;;;;;;;9.82;2.92;;;7.50;99.90;;;;;;5097813;28;20456;-78
2023/10/11 02:46:13;;;;;;;2.88;1.63;;;7.50;99.90;;;;;;5097157;28;20032;-78
2023/10/11 02:48:45;;;;;;;3.55;2.10;;;7.40;99.90;;;;;;5098314;28;20020;-78
2023/10/11 02:51:17;;;;;;;3.92;2.55;;;7.50;99.90;;;;;;5097532;28;20439;-78
2023/10/11 02:53:46;;;;;;;3.17;2.30;;;7.50;99.90;;;;;;5096693;28;20594;-78
2023/10/11 02:56:14;;;;;;;7.40;2.78;;;7.50;99.90;;;;;;5099236;28;20073;-78
2023/10/11 02:58:39;;;;;;;5.10;2.85;;;7.40;99.90;;;;;;5100145;28;20092;-78
2023/10/11 03:01:16;;;;;;;2.55;1.83;;;7.50;99.90;;;;;;5102383;28;20400;-78
2023/10/11 03:03:42;;;;;;;3.92;2.75;;;7.40;99.90;;;;;;5098005;28;20063;-78
2023/10/11 03:06:08;;;;;;;1.92;1.80;;;7.40;99.90;;;;;;5094338;28;20024;-78
2023/10/11 03:08:34;;;;;;;2.40;2.28;;;7.40;99.90;;;;;;5094526;28;20024;-78
2023/10/11 03:11:04;;;;;;;6.43;3.00;;;7.40;99.90;;;;;;5094496;28;20153;-77
2023/10/11 03:13:31;;;;;;;7.10;2.58;;;7.40;99.90;;;;;;5094370;28;20040;-78
2023/10/11 03:15:59;;;;;;;4.35;2.05;;;7.40;99.90;;;;;;5093335;28;20058;-78
2023/10/11 03:18:32;;;;;;;4.22;2.65;;;7.40;99.90;;;;;;5094240;28;20033;-77
2023/10/11 03:21:19;;;;;;;6.88;3.00;;;7.50;99.90;;;;;;5094291;28;20021;-78
2023/10/11 03:23:54;;;;;;;3.78;2.35;;;7.40;99.90;;;;;;5092556;28;20051;-77
2023/10/11 03:29:03;;;;;;;7.95;2.50;;;7.40;99.90;;;;;;5094732;28;20426;-78
2023/10/11 03:31:31;;;;;;;4.80;2.65;;;7.30;99.90;;;;;;5093432;28;20491;-78
2023/10/11 03:34:14;;;;;;;6.83;2.13;;;7.30;99.90;;;;;;5093155;28;20396;-78
2023/10/11 03:36:51;;;;;;;4.57;2.90;;;7.30;99.90;;;;;;5093157;28;20016;-78
2023/10/11 03:44:44;;;;;;;6.43;2.42;;;7.40;99.90;;;;;;5094568;28;20161;-77
2023/10/11 03:47:14;;;;;;;7.05;2.47;;;7.30;99.90;;;;;;5093505;28;20020;-78
2023/10/11 03:54:52;;;;;;;1.98;1.77;;;7.20;99.90;;;;;;5094508;28;20032;-78
2023/10/11 03:57:18;;;;;;;4.13;2.00;;;7.20;99.90;;;;;;5094550;28;20381;-78
2023/10/11 03:59:48;;;;;;;6.20;2.40;;;7.20;99.90;;;;;;5093946;28;20024;-77
2023/10/11 04:02:16;;;;;;;;;;;7.20;99.90;;;;;;5093348;28;20020;-78
2023/10/11 04:04:42;;;;;;;3.35;2.40;;;7.20;99.90;;;;;;5092951;28;20382;-78
2023/10/11 04:07:12;;;;;;;3.28;1.75;;;7.20;99.90;;;;;;5097994;28;20020;-78
2023/10/11 04:09:38;;;;;;;;;;;7.20;99.90;;;;;;5097810;28;20023;-78
2023/10/11 04:12:04;;;;;;;4.78;3.00;;;7.20;99.90;;;;;;5097168;28;19904;-78
2023/10/11 04:14:39;;;;;;;5.00;2.63;;;7.20;99.90;;;;;;5097008;28;20070;-78
2023/10/11 04:17:07;;;;;;;2.85;2.38;;;7.10;99.90;;;;;;5097307;28;20047;-77
2023/10/11 04:19:32;;;;;;;3.90;2.28;;;7.10;99.90;;;;;;5098194;28;20034;-78
2023/10/11 04:22:12;;;;;;;4.28;2.22;;;7.00;99.90;;;;;;5097291;28;20503;-78
2023/10/11 04:24:38;;;;;;;;;;;7.00;99.90;;;;;;5097612;28;20059;-78
2023/10/11 04:29:51;;;;;;;4.75;2.58;;;6.90;99.90;;;;;;5097926;28;20023;-78
2023/10/11 04:32:40;;;;;;;6.47;2.95;;;6.90;99.90;;;;;;5096209;28;20028;-78
2023/10/11 04:35:21;;;;;;;9.38;2.35;;;6.90;99.90;;;;;;5096105;28;20119;-78
2023/10/11 04:37:52;;;;;;;8.07;3.78;;;6.90;99.90;;;;;;5096430;28;20468;-77
2023/10/11 04:40:38;;;;;;;3.40;1.90;;;6.90;99.90;;;;;;5100022;28;20035;-78
2023/10/11 04:43:29;;;;;;;4.30;1.88;;;6.90;99.90;;;;;;5106849;28;20020;-78
2023/10/11 04:45:59;;;;;;;5.30;2.63;;;6.80;99.90;;;;;;5104122;28;20463;-77
2023/10/11 04:48:29;;;;;;;3.85;1.80;;;6.80;99.90;;;;;;5096205;28;20024;-78
2023/10/11 04:51:07;;;;;;;7.00;1.85;;;6.70;99.90;;;;;;5097944;28;20104;-79
2023/10/11 04:53:56;;;;;;;4.10;2.05;;;6.70;99.90;;;;;;5095566;28;20032;-79
2023/10/11 04:59:36;;;;;;;4.50;2.15;;;6.70;99.90;;;;;;5088926;28;20419;-78
2023/10/11 05:02:11;;;;;;;2.90;1.85;;;6.70;99.90;;;;;;5098328;28;20101;-78
2023/10/11 05:04:42;;;;;;;2.92;2.22;;;6.70;99.90;;;;;;5096890;28;20177;-77
2023/10/11 05:07:10;;;;;;;16.90;2.58;;;6.70;99.90;;;;;;5098254;28;20024;-77
2023/10/11 05:09:38;;;;;;;11.93;2.45;;;6.80;99.90;;;;;;5097604;28;20038;-78
2023/10/11 05:12:12;;;;;;;4.47;1.73;;;6.90;99.90;;;;;;5098575;28;20035;-78
2023/10/11 05:14:40;;;;;;;5.93;2.70;;;7.00;99.90;;;;;;5096539;28;20039;-78
2023/10/11 05:27:47;;;;;;;7.65;2.83;;;7.10;99.90;;;;;;5076778;28;20031;-77
2023/10/11 05:30:26;;;;;;;6.15;2.03;;;7.20;99.90;;;;;;5059018;28;20021;-78
2023/10/11 05:33:30;;;;;;;8.85;2.55;;;7.10;99.90;;;;;;5077069;28;20048;-78
2023/10/11 05:52:27;;;;;;;8.00;2.28;;;6.90;99.90;;;;;;5088190;28;20043;-80
2023/10/11 05:54:54;;;;;;;7.90;2.00;;;6.80;99.90;;;;;;5067282;28;20033;-80
2023/10/11 05:57:33;;;;;;;3.60;1.67;;;6.80;99.90;;;;;;5080406;28;20031;-78
2023/10/11 06:00:09;;;;;;;3.78;2.33;;;6.70;99.90;;;;;;5041009;28;20025;-79
2023/10/11 06:02:38;;;;;;;2.95;2.25;;;6.70;99.90;;;;;;5057452;28;20016;-78
2023/10/11 06:05:04;;;;;;;6.60;2.45;;;6.70;99.90;;;;;;5077104;28;20457;-79
2023/10/11 06:07:37;;;;;;;2.20;2.00;;;6.80;99.90;;;;;;5075841;28;20123;-79
2023/10/11 06:10:08;;;;;;;8.15;2.05;;;6.90;99.90;;;;;;5075246;28;20024;-78
2023/10/11 06:12:35;;;;;;;2.28;1.77;;;7.00;99.90;;;;;;5056798;28;20025;-78
2023/10/11 06:15:04;;;;;;;7.28;2.33;;;7.00;99.90;;;;;;5056853;28;20033;-78
2023/10/11 06:17:42;;;;;;;6.22;3.05;;;7.00;99.90;;;;;;5057243;28;20020;-78
2023/10/11 06:20:38;;;;;;;6.72;2.78;;;7.10;99.90;;;;;;5074630;28;20035;-78
2023/10/11 06:22:59;;;;;;;;;;;7.40;99.90;;;;;;5077960;28;20044;-79
2023/10/11 06:28:13;;;;;;;7.40;2.80;;;7.80;99.90;;;;;;5074299;28;20463;-79
2023/10/11 06:30:47;;;;;;;3.38;1.98;;;7.90;99.90;;;;;;5056481;28;20025;-78
2023/10/11 06:33:14;;;;;;;8.90;2.38;;;7.80;99.90;;;;;;5074151;28;20036;-78
2023/10/11 06:35:49;;;;;;;8.48;3.00;;;7.90;99.90;;;;;;5057784;28;20494;-79
2023/10/11 06:38:15;;;;;;;4.72;3.28;;;8.00;99.90;;;;;;5056667;28;20710;-78
2023/10/11 06:40:54;;;;;;;5.30;3.40;;;8.20;99.90;;;;;;5074275;28;20028;-78
2023/10/11 06:43:20;;;;;;;3.80;2.63;;;8.40;99.90;;;;;;5073973;28;20074;-78
2023/10/11 06:45:46;;;;;;;3.88;2.55;;;8.60;99.90;;;;;;5075083;28;20021;-78
2023/10/11 06:48:15;;;;;;;5.35;2.30;;;8.70;99.90;;;;;;5075022;28;20036;-77
2023/10/11 06:50:41;;;;;;;10.90;3.25;;;8.80;99.90;;;;;;5074616;28;20021;-78
2023/10/11 06:53:09;;;;;;;5.80;2.47;;;8.90;99.90;;;;;;5063524;28;20040;-79
2023/10/11 06:55:47;;;;;;;4.53;1.65;;;9.00;99.90;;;;;;5084799;28;20020;-78
2023/10/11 06:58:19;;;;;;;10.77;2.93;;;9.10;99.90;;;;;;5058564;28;20017;-77
2023/10/11 07:00:48;;;;;;;5.78;2.53;;;9.20;99.90;;;;;;5055876;28;20031;-78
2023/10/11 07:05:47;;;;;;;6.10;2.45;;;9.40;99.90;;;;;;5073979;28;20035;-78
2023/10/11 07:08:20;;;;;;;5.35;2.78;;;9.50;99.90;;;;;;5074113;28;20029;-79
2023/10/11 07:11:10;;;;;;;6.88;2.17;;;9.60;99.90;;;;;;5055990;28;20104;-78
2023/10/11 07:13:57;;;;;;;5.55;2.78;;;9.80;99.90;;;;;;5062847;28;20040;-79
2023/10/11 07:16:27;;;;;;;6.22;2.63;;;9.90;99.90;;;;;;5058241;28;20024;-78
2023/10/11 07:18:57;;;;;;;2.97;1.95;;;10.10;99.90;;;;;;5058245;28;20020;-78
2023/10/11 07:21:26;;;;;;;8.25;2.72;;;10.20;99.90;;;;;;5058929;28;20029;-79
2023/10/11 07:28:59;;;;;;;5.63;2.65;;;10.80;99.90;;;;;;5074134;28;20016;-78
2023/10/11 07:31:35;;;;;;;6.43;3.35;;;11.10;99.90;;;;;;5074452;28;20016;-78
2023/10/11 07:34:09;;;;;;;5.00;2.95;;;11.20;99.90;;;;;;5057254;28;20039;-78
2023/10/11 07:36:39;;;;;;;2.72;2.53;;;11.40;99.90;;;;;;5075567;28;20048;-78
2023/10/11 07:39:15;;;;;;;8.82;3.08;;;11.60;99.90;;;;;;5057123;28;20059;-78
2023/10/11 07:41:44;;;;;;;3.70;2.30;;;11.70;99.90;;;;;;5060981;28;20063;-78
2023/10/11 07:44:12;;;;;;;10.20;3.27;;;11.80;99.90;;;;;;5059896;28;20111;-78
2023/10/11 07:46:38;;;;;;;10.02;3.75;;;11.90;99.90;;;;;;5061691;28;20028;-78
2023/10/11 07:49:08;;;;;;;5.50;2.65;;;12.00;99.90;;;;;;5061257;28;20113;-79
2023/10/11 07:51:40;;;;;;;5.88;2.55;;;12.10;99.90;;;;;;5061069;28;20500;-79
2023/10/11 07:54:07;;;;;;;7.78;2.85;;;12.30;99.90;;;;;;5060990;28;20036;-78
2023/10/11 07:56:37;;;;;;;3.78;2.72;;;12.40;99.90;;;;;;5061326;28;20017;-77
2023/10/11 07:59:09;;;;;;;7.82;3.30;;;12.70;99.90;;;;;;5061377;28;20025;-78
2023/10/11 08:01:45;;;;;;;6.30;2.80;;;12.90;99.90;;;;;;5060456;28;20024;-78
2023/10/11 08:04:11;;;;;;;13.30;3.42;;;13.10;99.90;;;;;;5060817;28;20111;-79
2023/10/11 08:06:41;;;;;;;4.85;2.65;;;13.20;99.90;;;;;;5060598;28;20028;-78
2023/10/11 08:09:09;;;;;;;9.85;3.67;;;13.40;99.90;;;;;;5079390;28;20070;-77
2023/10/11 08:11:45;;;;;;;12.63;3.65;;;13.50;99.90;;;;;;5078711;28;20099;-80
2023/10/11 08:14:15;;;;;;;11.57;3.28;;;13.70;99.90;;;;;;5060889;28;20028;-79
2023/10/11 08:16:47;;;;;;;;;;;13.90;99.90;;;;;;5080742;28;20499;-78
2023/10/11 08:19:13;;;;;;;9.88;3.22;;;14.00;99.90;;;;;;5081513;28;19911;-79
2023/10/11 08:21:39;;;;;;;10.02;3.47;;;14.10;99.90;;;;;;5081732;28;20021;-79
2023/10/11 08:24:15;;;;;;;5.88;3.00;;;14.20;99.90;;;;;;5079258;28;20560;-79
2023/10/11 08:26:42;;;;;;;8.70;3.50;;;14.30;99.90;;;;;;5059658;28;20480;-80
2023/10/11 08:29:17;;;;;;;7.13;3.15;;;14.40;99.90;;;;;;5058904;28;20457;-80
2023/10/11 08:31:44;;;;;;;4.80;2.15;;;14.50;99.90;;;;;;5076991;28;20024;-79
2023/10/11 08:34:14;;;;;;;11.45;3.83;;;14.60;99.90;;;;;;5077312;28;20044;-80
2023/10/11 08:36:42;;;;;;;6.97;3.17;;;14.80;99.90;;;;;;5080010;28;20399;-79
2023/10/11 08:39:08;;;;;;;7.13;2.30;;;15.00;99.90;;;;;;5082704;28;20090;-79
2023/10/11 08:41:34;;;;;;;6.80;2.22;;;15.10;99.90;;;;;;5065277;28;20461;-79
2023/10/11 08:44:20;;;;;;;8.48;3.33;;;15.20;99.90;;;;;;5079657;28;20092;-80
2023/10/11 08:46:51;;;;;;;8.48;2.80;;;15.40;99.90;;;;;;5083226;28;20020;-79
2023/10/11 08:49:17;;;;;;;6.78;2.97;;;15.70;99.90;;;;;;5084849;28;20205;-78
2023/10/11 08:51:43;;;;;;;8.93;4.78;;;15.90;99.90;;;;;;5086465;28;20027;-79
2023/10/11 08:54:16;;;;;;;13.23;3.58;;;16.00;99.90;;;;;;5087079;28;20038;-73
2023/10/11 08:56:57;;;;;;;5.40;2.65;;;16.10;99.90;;;;;;5079366;28;20017;-78
2023/10/11 08:59:30;;;;;;;3.88;2.78;;;16.30;99.90;;;;;;5076946;28;20017;-77
2023/10/11 09:02:07;;;;;;;19.38;4.03;;;16.50;99.90;;;;;;5058436;28;20024;-78
2023/10/11 09:04:59;;;;;;;11.10;3.45;;;16.50;99.90;;;;;;5076034;28;20025;-78
2023/10/11 09:07:44;;;;;;;4.63;2.05;;;16.60;99.90;;;;;;5075875;28;20016;-79
2023/10/11 09:10:25;;;;;;;6.72;3.10;;;16.60;99.90;;;;;;5075655;28;20019;-77
2023/10/11 09:12:56;;;;;;;5.85;2.92;;;16.70;99.90;;;;;;5075926;28;20028;-78
2023/10/11 09:15:23;;;;;;;8.55;2.83;;;17.00;99.90;;;;;;5058140;28;20041;-77
2023/10/11 09:17:50;;;;;;;14.73;3.80;;;17.10;99.90;;;;;;5075798;28;20021;-78
2023/10/11 09:20:23;;;;;;;9.73;3.28;;;17.20;99.90;;;;;;5075642;28;20098;-78
2023/10/11 09:22:55;;;;;;;11.95;4.00;;;17.30;99.90;;;;;;5075459;28;20072;-78
2023/10/11 09:25:22;;;;;;;8.63;2.92;;;17.30;99.90;;;;;;5075488;28;20020;-78
2023/10/11 09:27:52;;;;;;;5.05;2.90;;;17.50;99.90;;;;;;5075422;28;20020;-78
2023/10/11 09:30:20;;;;;;;5.40;2.83;;;17.60;99.90;;;;;;5075315;28;20103;-72
2023/10/11 09:32:51;;;;;;;8.02;3.35;;;17.80;99.90;;;;;;5075268;28;20062;-72
2023/10/11 09:35:25;;;;;;;18.25;3.85;;;18.00;99.90;;;;;;5075364;28;20037;-73
2023/10/11 09:37:51;;;;;;;15.35;3.50;;;18.20;99.90;;;;;;5075348;28;20055;-73
2023/10/11 09:40:18;;;;;;;9.90;4.28;;;18.30;99.90;;;;;;5075430;28;20024;-73
2023/10/11 09:42:45;;;;;;;3.97;2.25;;;18.40;99.90;;;;;;5075046;28;20024;-73
2023/10/11 09:45:16;;;;;;;5.45;2.67;;;18.60;99.90;;;;;;5075024;28;20029;-75
2023/10/11 09:47:44;;;;;;;6.00;2.45;;;18.60;99.90;;;;;;5075118;28;20021;-75
2023/10/11 09:50:15;;;;;;;7.55;2.60;;;18.80;99.90;;;;;;5074574;28;20028;-72
2023/10/11 09:52:46;;;;;;;7.93;2.53;;;18.90;99.90;;;;;;5075048;28;20017;-73
2023/10/11 09:55:17;;;;;;;11.52;3.00;;;19.10;99.90;;;;;;5075139;28;20029;-74
2023/10/11 09:57:55;;;;;;;4.60;2.15;;;19.20;99.90;;;;;;5075312;28;20025;-73
2023/10/11 10:00:52;;;;;;;5.90;2.22;;;19.30;99.90;;;;;;5074600;28;20113;-73
2023/10/11 10:03:24;;;;;;;7.90;2.90;;;19.40;99.90;;;;;;5072787;28;20110;-74
2023/10/11 10:06:19;;;;;;;6.53;2.40;;;19.50;99.90;;;;;;5075059;28;20031;-73
2023/10/11 10:12:05;;;;;;;11.00;3.03;;;19.80;99.90;;;;;;5051460;28;20224;-73
2023/10/11 10:14:36;;;;;;;6.03;2.57;;;20.00;99.90;;;;;;5085199;28;20039;-72
2023/10/11 10:17:18;;;;;;;6.47;2.50;;;20.10;99.90;;;;;;5085039;28;20052;-72
2023/10/11 10:19:47;;;;;;;6.68;2.65;;;20.30;99.90;;;;;;5085239;28;20020;-73
2023/10/11 10:22:15;;;;;;;3.70;2.38;;;20.40;99.90;;;;;;5082915;28;20070;-74
2023/10/11 10:24:44;;;;;;;4.95;2.80;;;20.50;99.90;;;;;;5084542;28;20041;-73
2023/10/11 10:27:33;;;;;;;5.78;2.47;;;20.70;99.90;;;;;;5074242;28;20023;-73
2023/10/11 10:30:05;;;;;;;7.88;3.20;;;20.80;99.90;;;;;;5074516;28;20065;-73
2023/10/11 10:32:31;;;;;;;7.35;2.58;;;21.00;99.90;;;;;;5074280;28;20048;-76
2023/10/11 10:35:20;;;;;;;6.53;3.05;;;21.00;99.90;;;;;;5073990;28;20071;-77
2023/10/11 10:37:46;;;;;;;6.07;2.20;;;21.20;99.90;;;;;;5074027;28;20025;-78
2023/10/11 10:40:25;;;;;;;9.63;2.70;;;21.30;99.90;;;;;;5057418;28;20086;-77
2023/10/11 10:43:20;;;;;;;10.38;3.17;;;21.30;99.90;;;;;;5075457;28;20085;-77
2023/10/11 10:45:59;;;;;;;11.90;3.63;;;21.40;99.90;;;;;;5040497;28;20029;-79
2023/10/11 10:48:25;;;;;;;4.25;2.38;;;21.50;99.90;;;;;;5075615;28;20017;-79
2023/10/11 10:50:52;;;;;;;4.65;2.38;;;21.60;99.90;;;;;;5075457;28;20025;-77
2023/10/11 10:53:20;;;;;;;9.82;2.53;;;21.70;99.90;;;;;;5060517;28;20381;-78
2023/10/11 10:55:47;;;;;;;9.38;3.33;;;21.80;99.90;;;;;;5077696;28;20031;-78
2023/10/11 10:58:17;;;;;;;6.68;3.40;;;21.90;99.90;;;;;;5057905;28;20024;-78
2023/10/11 11:00:43;;;;;;;5.38;2.85;;;22.10;99.80;;;;;;5075044;28;20052;-77
2023/10/11 11:03:25;;;;;;;7.53;2.30;;;22.30;99.50;;;;;;5055842;28;20024;-78
2023/10/11 11:05:58;;;;;;;7.03;2.92;;;22.30;97.90;;;;;;5074097;28;20032;-77
2023/10/11 11:08:31;;;;;;;8.88;3.05;;;22.40;97.90;;;;;;5073789;28;20070;-77
2023/10/11 11:11:00;;;;;;;3.58;2.30;;;22.50;97.10;;;;;;5055802;28;20032;-77
2023/10/11 11:13:30;;;;;;;7.40;2.40;;;22.60;97.20;;;;;;5073422;28;20111;-78
2023/10/11 11:15:56;;;;;;;13.98;2.65;;;22.70;96.60;;;;;;5055160;28;20039;-77
2023/10/11 11:18:32;;;;;;;4.47;2.63;;;22.90;95.90;;;;;;5055380;28;20469;-77
2023/10/11 11:21:17;;;;;;;5.55;2.63;;;23.00;96.20;;;;;;5055429;28;20504;-77
2023/10/11 11:23:44;;;;;;;6.45;2.70;;;23.00;94.80;;;;;;5073684;28;20048;-77
2023/10/11 11:26:17;;;;;;;10.23;3.15;;;23.30;93.20;;;;;;5057256;28;20097;-77
2023/10/11 11:28:46;;;;;;;5.53;2.97;;;23.40;92.80;;;;;;5074293;28;20063;-77
2023/10/11 11:34:05;;;;;;;7.72;2.88;;;23.60;91.10;;;;;;5073775;28;20056;-77
2023/10/11 11:36:31;;;;;;;7.80;3.17;;;23.70;91.40;;;;;;5073407;28;20021;-75
2023/10/11 11:39:17;;;;;;;7.50;3.88;;;23.90;92.10;;;;;;5073531;28;20047;-75
2023/10/11 11:41:47;;;;;;;8.82;2.38;;;24.00;91.40;;;;;;5073511;28;20036;-77
2023/10/11 11:44:20;;;;;;;5.20;2.38;;;24.10;90.30;;;;;;5055572;28;20032;-77
2023/10/11 11:46:50;;;;;;;4.10;1.58;;;24.10;90.00;;;;;;5073645;28;20023;-76
2023/10/11 11:49:20;;;;;;;7.53;2.05;;;24.20;87.60;;;;;;5073444;28;20034;-78
2023/10/11 11:51:53;;;;;;;7.43;1.88;;;24.30;86.30;;;;;;5073482;28;20526;-79
2023/10/11 11:54:20;;;;;;;7.53;2.78;;;24.30;85.40;;;;;;5072748;28;20056;-78
2023/10/11 11:56:46;;;;;;;3.70;2.13;;;24.40;84.70;;;;;;5073086;28;20054;-77
2023/10/11 11:59:19;;;;;;;3.00;1.95;;;24.50;84.70;;;;;;5055568;28;20385;-76
2023/10/11 12:01:49;;;;;;;6.47;2.90;;;24.60;83.50;;;;;;5078659;28;20039;-78
2023/10/11 12:04:20;;;;;;;6.28;2.60;;;24.70;82.30;;;;;;5082692;28;20017;-77
2023/10/11 12:06:49;;;;;;;7.13;2.80;;;24.90;82.40;;;;;;5060455;28;20094;-76
2023/10/11 12:09:21;;;;;;;5.00;1.98;;;25.00;81.70;;;;;;5065826;28;20016;-79
2023/10/11 12:11:50;;;;;;;4.60;2.13;;;25.20;78.80;;;;;;5075058;28;20028;-80
2023/10/11 12:14:16;;;;;;;4.55;2.20;;;25.80;79.40;;;;;;5055035;28;20032;-76
2023/10/11 12:16:42;;;;;;;3.88;2.00;;;26.30;76.20;;;;;;5072990;28;20109;-80
2023/10/11 12:19:13;;;;;;;4.20;2.55;;;27.00;74.10;;;;;;5055441;28;20027;-81
2023/10/11 12:21:39;;;;;;;6.05;2.88;;;28.90;71.00;;;;;;5055542;28;20108;-80
2023/10/11 12:24:10;;;;;;;3.83;2.30;;;30.30;67.70;;;;;;5081718;28;20036;-76
2023/10/11 12:26:40;;;;;;;5.05;1.95;;;32.00;63.50;;;;;;5093913;28;20028;-74
2023/10/11 12:29:09;;;;;;;4.80;1.67;;;33.00;60.80;;;;;;5099856;28;20441;-75
2023/10/11 12:31:38;;;;;;;5.07;2.15;;;33.80;58.00;;;;;;5097360;28;20028;-76
2023/10/11 12:34:11;;;;;;;6.28;2.45;;;33.20;56.20;;;;;;5101355;28;20047;-76
2023/10/11 12:36:41;;;;;;;6.07;1.88;;;33.70;55.90;;;;;;5107264;28;20031;-76
2023/10/11 12:39:20;;;;;;;8.10;1.90;;;33.90;53.40;;;;;;5106123;28;20312;-76
2023/10/11 12:41:50;;;;;;;6.45;2.17;;;34.30;53.30;;;;;;5104897;28;20077;-76
2023/10/11 12:44:17;;;;;;;5.70;2.10;;;34.00;52.00;;;;;;5106975;28;20024;-75
2023/10/11 12:46:42;;;;;;;2.65;2.05;;;34.00;52.00;;;;;;5107061;28;20211;-77
2023/10/11 12:49:14;;;;;;;5.15;2.00;;;33.60;52.10;;;;;;5106259;28;20020;-75
2023/10/11 12:51:47;;;;;;;3.35;2.10;;;34.10;53.30;;;;;;5103510;28;20028;-75
2023/10/11 12:54:16;;;;;;;5.15;1.75;;;34.90;51.50;;;;;;5097259;28;20107;-78
2023/10/11 12:56:42;;;;;;;4.15;2.00;;;34.80;51.50;;;;;;5095052;28;20461;-80
2023/10/11 12:59:16;;;;;;;4.57;2.13;;;35.40;50.30;;;;;;5097312;28;20048;-81
2023/10/11 13:01:50;;;;;;;3.63;2.35;;;35.40;49.90;;;;;;5095074;28;20431;-80
2023/10/11 13:07:13;;;;;;;3.60;2.17;;;35.70;51.00;;;;;;5088167;28;20158;-81
2023/10/11 13:09:40;;;;;;;6.88;1.90;;;34.90;48.20;;;;;;5100367;28;20024;-80
2023/10/11 13:12:06;;;;;;;4.05;1.73;;;34.60;50.70;;;;;;5096310;28;20042;-80
2023/10/11 13:14:33;;;;;;;7.43;2.35;;;34.30;50.70;;;;;;5096417;28;20093;-80
2023/10/11 13:17:00;;;;;;;12.40;3.13;;;33.40;51.10;;;;;;5094803;28;20020;-81
2023/10/11 13:19:26;;;;;;;11.27;2.78;;;31.90;51.30;;;;;;5096207;28;20016;-78
2023/10/11 13:21:54;;;;;;;6.88;2.28;;;32.50;53.50;;;;;;5095781;28;20392;-78
2023/10/11 13:24:22;;;;;;;9.20;2.50;;;32.90;53.50;;;;;;5078782;28;20512;-81
2023/10/11 13:26:49;;;;;;;3.85;1.92;;;33.90;51.40;;;;;;5075580;28;20060;-83
2023/10/11 13:29:18;;;;;;;9.50;1.98;;;34.60;51.50;;;;;;5075847;28;20016;-80
2023/10/11 13:31:48;;;;;;;7.18;2.35;;;34.70;50.90;;;;;;5075657;28;20032;-81
2023/10/11 13:34:14;;;;;;;9.48;2.50;;;35.00;49.90;;;;;;5075380;28;20037;-80
2023/10/11 13:36:41;;;;;;;5.50;1.92;;;35.50;49.60;;;;;;5075643;28;20114;-81
2023/10/11 13:42:04;;;;;;;5.45;2.45;;;35.40;49.60;;;;;;5075633;28;20031;-79
2023/10/11 13:44:32;;;;;;;;;;;34.60;50.10;;;;;;5075471;28;20303;-82
2023/10/11 13:46:58;;;;;;;;;;;33.90;50.30;;;;;;5076213;28;19927;-81
2023/10/11 13:49:25;;;;;;;6.75;2.63;;;33.00;51.40;;;;;;5057449;28;20345;-80
2023/10/11 13:52:01;;;;;;;3.85;2.30;;;33.40;51.40;;;;;;5057396;28;20024;-79
2023/10/11 13:54:36;;;;;;;5.40;1.88;;;33.40;51.60;;;;;;5075197;28;20076;-78
2023/10/11 13:57:16;;;;;;;5.93;2.05;;;33.90;51.10;;;;;;5057240;28;20074;-78
2023/10/11 13:59:47;;;;;;;8.05;2.20;;;34.40;50.20;;;;;;5057025;28;20374;-79
2023/10/11 14:05:38;;;;;;;4.18;2.67;;;33.60;51.10;;;;;;5075891;28;20035;-76
2023/10/11 14:07:52;;;;;;;6.68;2.60;;;33.10;52.20;;;;;;5061294;28;20024;-75
2023/10/11 14:10:28;;;;;;;4.32;2.55;;;33.50;53.00;;;;;;5057097;28;20064;-79
2023/10/11 14:13:07;;;;;;;6.50;2.22;;;33.90;51.70;;;;;;5057042;28;20392;-76
2023/10/11 14:15:35;;;;;;;4.18;1.90;;;34.30;51.50;;;;;;5056884;28;20682;-80
2023/10/11 14:18:03;;;;;;;6.45;2.17;;;33.40;52.40;;;;;;5057638;28;20091;-77
2023/10/11 14:20:32;;;;;;;6.13;2.03;;;32.40;51.60;;;;;;5064371;28;20032;-78
2023/10/11 14:23:04;;;;;;;;;;;33.00;51.80;;;;;;5074598;28;20039;-79
2023/10/11 14:25:30;;;;;;;6.80;2.42;;;33.10;51.50;;;;;;5100308;28;20319;-76
2023/10/11 14:27:56;;;;;;;5.63;2.30;;;33.50;51.40;;;;;;5104219;28;20328;-80